sensor_id;sensor_type;location;lat;lon;timestamp;pressure;altitude;pressure_sealevel;temperature;humidity
58875;BME280;44652;49.040;12.126;2023-04-07T18:08:37;97400.72;;;10.32;41.64
58875;BME280;44652;49.040;12.126;2023-04-07T18:11:04;97410.00;;;10.17;42.14
58875;BME280;44652;49.040;12.126;2023-04-07T18:13:32;97425.81;;;10.17;42.65
58875;BME280;44652;49.040;12.126;2023-04-07T18:15:59;97407.84;;;10.01;43.41
58875;BME280;44652;49.040;12.126;2023-04-07T18:18:26;97427.16;;;10.02;43.62
58875;BME280;44652;49.040;12.126;2023-04-07T18:20:53;97422.31;;;9.84;44.25
58875;BME280;44652;49.040;12.126;2023-04-07T18:23:19;97420.25;;;9.72;44.78
58875;BME280;44652;49.040;12.126;2023-04-07T18:25:46;97419.84;;;9.57;45.67
58875;BME280;44652;49.040;12.126;2023-04-07T18:28:13;97437.25;;;9.52;45.32
58875;BME280;44652;49.040;12.126;2023-04-07T18:30:39;97425.25;;;9.30;46.13
58875;BME280;44652;49.040;12.126;2023-04-07T18:33:07;97444.66;;;9.35;46.82
58875;BME280;44652;49.040;12.126;2023-04-07T18:35:34;97456.47;;;8.89;47.14
58875;BME280;44652;49.040;12.126;2023-04-07T18:38:01;97451.88;;;8.82;48.25
58875;BME280;44652;49.040;12.126;2023-04-07T18:40:30;97454.56;;;8.55;49.13
58875;BME280;44652;49.040;12.126;2023-04-07T18:42:58;97445.69;;;8.51;49.56
58875;BME280;44652;49.040;12.126;2023-04-07T18:45:25;97461.31;;;8.46;49.95
58875;BME280;44652;49.040;12.126;2023-04-07T18:47:54;97459.47;;;8.44;50.34
58875;BME280;44652;49.040;12.126;2023-04-07T18:50:20;97451.16;;;8.32;51.16
58875;BME280;44652;49.040;12.126;2023-04-07T18:52:50;97448.31;;;8.25;51.34
58875;BME280;44652;49.040;12.126;2023-04-07T18:55:17;97464.94;;;8.24;50.94
58875;BME280;44652;49.040;12.126;2023-04-07T18:57:45;97487.66;;;8.24;52.45
58875;BME280;44652;49.040;12.126;2023-04-07T19:00:12;97468.69;;;8.05;52.17
58875;BME280;44652;49.040;12.126;2023-04-07T19:02:39;97468.63;;;8.04;52.03
58875;BME280;44652;49.040;12.126;2023-04-07T19:05:10;97493.28;;;8.09;52.30
58875;BME280;44652;49.040;12.126;2023-04-07T19:07:37;97467.53;;;7.97;51.33
58875;BME280;44652;49.040;12.126;2023-04-07T19:10:04;97477.06;;;7.95;52.53
58875;BME280;44652;49.040;12.126;2023-04-07T19:12:31;97482.31;;;7.95;52.34
58875;BME280;44652;49.040;12.126;2023-04-07T19:14:57;97473.16;;;7.83;52.21
58875;BME280;44652;49.040;12.126;2023-04-07T19:17:24;97469.63;;;7.82;53.28
58875;BME280;44652;49.040;12.126;2023-04-07T19:19:51;97482.78;;;7.84;52.29
58875;BME280;44652;49.040;12.126;2023-04-07T19:22:18;97494.97;;;7.82;53.64
58875;BME280;44652;49.040;12.126;2023-04-07T19:24:45;97503.81;;;7.60;54.63
58875;BME280;44652;49.040;12.126;2023-04-07T19:27:12;97485.94;;;7.49;54.58
58875;BME280;44652;49.040;12.126;2023-04-07T19:29:40;97496.69;;;7.55;55.39
58875;BME280;44652;49.040;12.126;2023-04-07T19:32:06;97491.28;;;7.51;55.80
58875;BME280;44652;49.040;12.126;2023-04-07T19:34:34;97496.63;;;7.54;56.74
58875;BME280;44652;49.040;12.126;2023-04-07T19:37:00;97477.97;;;7.22;57.14
58875;BME280;44652;49.040;12.126;2023-04-07T19:39:27;97492.53;;;7.14;57.14
58875;BME280;44652;49.040;12.126;2023-04-07T19:41:54;97498.34;;;7.29;58.05
58875;BME280;44652;49.040;12.126;2023-04-07T19:44:21;97504.34;;;7.27;59.06
58875;BME280;44652;49.040;12.126;2023-04-07T19:46:48;97490.94;;;7.18;58.59
58875;BME280;44652;49.040;12.126;2023-04-07T19:49:14;97500.28;;;7.11;58.46
58875;BME280;44652;49.040;12.126;2023-04-07T19:51:41;97498.84;;;6.97;60.05
58875;BME280;44652;49.040;12.126;2023-04-07T19:54:08;97500.25;;;6.87;59.89
58875;BME280;44652;49.040;12.126;2023-04-07T19:56:36;97513.94;;;6.80;60.17
58875;BME280;44652;49.040;12.126;2023-04-07T19:59:03;97508.00;;;6.41;61.43
58875;BME280;44652;49.040;12.126;2023-04-07T20:01:29;97522.03;;;6.43;61.78
58875;BME280;44652;49.040;12.126;2023-04-07T20:03:56;97522.16;;;6.25;62.35
58875;BME280;44652;49.040;12.126;2023-04-07T20:06:23;97523.50;;;6.36;62.36
58875;BME280;44652;49.040;12.126;2023-04-07T20:08:51;97529.97;;;6.02;62.97
58875;BME280;44652;49.040;12.126;2023-04-07T20:11:18;97527.16;;;5.98;63.27
58875;BME280;44652;49.040;12.126;2023-04-07T20:13:46;97519.25;;;5.96;63.82
58875;BME280;44652;49.040;12.126;2023-04-07T20:16:13;97528.75;;;5.94;63.81
58875;BME280;44652;49.040;12.126;2023-04-07T20:18:40;97528.50;;;5.90;64.60
58875;BME280;44652;49.040;12.126;2023-04-07T20:21:06;97536.28;;;5.48;65.47
58875;BME280;44652;49.040;12.126;2023-04-07T20:23:33;97521.22;;;5.23;66.64
58875;BME280;44652;49.040;12.126;2023-04-07T20:26:00;97533.59;;;5.46;65.92
58875;BME280;44652;49.040;12.126;2023-04-07T20:28:29;97551.34;;;5.53;65.39
58875;BME280;44652;49.040;12.126;2023-04-07T20:30:56;97547.47;;;5.06;67.40
58875;BME280;44652;49.040;12.126;2023-04-07T20:33:23;97559.50;;;5.22;67.45
58875;BME280;44652;49.040;12.126;2023-04-07T20:35:49;97543.03;;;5.23;66.39
58875;BME280;44652;49.040;12.126;2023-04-07T20:38:16;97565.75;;;5.26;66.69
58875;BME280;44652;49.040;12.126;2023-04-07T20:40:44;97545.00;;;5.09;66.57
58875;BME280;44652;49.040;12.126;2023-04-07T20:43:10;97542.31;;;5.08;66.58
58875;BME280;44652;49.040;12.126;2023-04-07T20:45:37;97546.59;;;4.88;66.91
58875;BME280;44652;49.040;12.126;2023-04-07T20:48:04;97562.38;;;5.09;66.37
58875;BME280;44652;49.040;12.126;2023-04-07T20:50:31;97564.69;;;5.03;66.93
58875;BME280;44652;49.040;12.126;2023-04-07T20:52:58;97549.13;;;5.04;67.24
58875;BME280;44652;49.040;12.126;2023-04-07T20:55:25;97545.72;;;5.07;66.83
58875;BME280;44652;49.040;12.126;2023-04-07T20:57:52;97559.91;;;4.75;68.69
58875;BME280;44652;49.040;12.126;2023-04-07T21:00:20;97559.53;;;4.85;68.15
58875;BME280;44652;49.040;12.126;2023-04-07T21:02:46;97562.63;;;4.96;67.58
58875;BME280;44652;49.040;12.126;2023-04-07T21:05:14;97551.63;;;5.03;67.54
58875;BME280;44652;49.040;12.126;2023-04-07T21:07:40;97568.19;;;5.03;67.76
58875;BME280;44652;49.040;12.126;2023-04-07T21:10:08;97569.97;;;4.85;67.95
58875;BME280;44652;49.040;12.126;2023-04-07T21:12:35;97567.94;;;4.97;67.35
58875;BME280;44652;49.040;12.126;2023-04-07T21:15:02;97576.72;;;4.99;67.57
58875;BME280;44652;49.040;12.126;2023-04-07T21:17:28;97585.38;;;4.98;67.95
58875;BME280;44652;49.040;12.126;2023-04-07T21:19:55;97582.97;;;5.03;67.35
58875;BME280;44652;49.040;12.126;2023-04-07T21:22:22;97570.19;;;4.72;68.56
58875;BME280;44652;49.040;12.126;2023-04-07T21:24:51;97567.44;;;4.69;68.74
58875;BME280;44652;49.040;12.126;2023-04-07T21:27:18;97568.25;;;4.68;68.86
58875;BME280;44652;49.040;12.126;2023-04-07T21:29:44;97584.34;;;4.77;69.61
58875;BME280;44652;49.040;12.126;2023-04-07T21:32:11;97580.47;;;4.69;69.45
58875;BME280;44652;49.040;12.126;2023-04-07T21:34:39;97565.72;;;4.69;69.40
58875;BME280;44652;49.040;12.126;2023-04-07T21:37:06;97595.72;;;4.77;69.52
58875;BME280;44652;49.040;12.126;2023-04-07T21:39:33;97577.50;;;4.79;69.63
58875;BME280;44652;49.040;12.126;2023-04-07T21:42:00;97567.22;;;4.82;69.30
58875;BME280;44652;49.040;12.126;2023-04-07T21:44:27;97578.22;;;4.94;69.33
58875;BME280;44652;49.040;12.126;2023-04-07T21:46:54;97581.06;;;4.81;69.11
58875;BME280;44652;49.040;12.126;2023-04-07T21:49:20;97575.81;;;4.99;68.65
58875;BME280;44652;49.040;12.126;2023-04-07T21:51:47;97573.31;;;5.00;68.51
58875;BME280;44652;49.040;12.126;2023-04-07T21:54:14;97572.38;;;5.00;69.07
58875;BME280;44652;49.040;12.126;2023-04-07T21:56:41;97580.69;;;4.91;68.98
58875;BME280;44652;49.040;12.126;2023-04-07T21:59:08;97582.84;;;5.00;69.08
58875;BME280;44652;49.040;12.126;2023-04-07T22:01:35;97567.47;;;4.88;69.23
58875;BME280;44652;49.040;12.126;2023-04-07T22:04:01;97588.28;;;5.04;69.53
58875;BME280;44652;49.040;12.126;2023-04-07T22:06:28;97569.88;;;5.01;69.43
58875;BME280;44652;49.040;12.126;2023-04-07T22:08:55;97593.16;;;4.97;70.00
58875;BME280;44652;49.040;12.126;2023-04-07T22:11:27;97574.50;;;4.89;70.06
58875;BME280;44652;49.040;12.126;2023-04-07T22:13:54;97579.56;;;5.04;69.73
58875;BME280;44652;49.040;12.126;2023-04-07T22:16:20;97586.44;;;5.02;69.57
58875;BME280;44652;49.040;12.126;2023-04-07T22:18:47;97586.56;;;5.05;69.71
58875;BME280;44652;49.040;12.126;2023-04-07T22:21:14;97570.28;;;5.10;69.34
58875;BME280;44652;49.040;12.126;2023-04-07T22:23:40;97570.81;;;5.03;69.44
58875;BME280;44652;49.040;12.126;2023-04-07T22:26:07;97576.13;;;5.05;69.42
58875;BME280;44652;49.040;12.126;2023-04-07T22:28:34;97589.41;;;5.09;69.20
58875;BME280;44652;49.040;12.126;2023-04-07T22:31:01;97586.91;;;4.93;69.91
58875;BME280;44652;49.040;12.126;2023-04-07T22:33:28;97599.44;;;5.00;69.80
58875;BME280;44652;49.040;12.126;2023-04-07T22:35:55;97585.81;;;5.07;69.29
58875;BME280;44652;49.040;12.126;2023-04-07T22:38:23;97579.78;;;4.91;69.82
58875;BME280;44652;49.040;12.126;2023-04-07T22:40:50;97579.28;;;4.80;69.95
58875;BME280;44652;49.040;12.126;2023-04-07T22:43:16;97573.78;;;4.74;70.50
58875;BME280;44652;49.040;12.126;2023-04-07T22:45:43;97592.56;;;4.84;70.22
58875;BME280;44652;49.040;12.126;2023-04-07T22:48:10;97596.72;;;4.81;70.94
58875;BME280;44652;49.040;12.126;2023-04-07T22:50:36;97577.19;;;4.91;70.50
58875;BME280;44652;49.040;12.126;2023-04-07T22:53:03;97584.16;;;5.09;69.92
58875;BME280;44652;49.040;12.126;2023-04-07T22:55:33;97588.28;;;5.04;69.66
